地図

経路データ

SID SEASON NUMBER BASIN SUBBASIN NAME ISO_TIME NATURE LAT LON WMO_WIND WMO_PRES WMO_AGENCY TRACK_TYPE DIST2LAND LANDFALL IFLAG USA_AGENCY USA_ATCF_ID USA_LAT USA_LON USA_RECORD USA_STATUS USA_WIND USA_PRES USA_SSHS USA_R34_NE USA_R34_SE USA_R34_SW USA_R34_NW USA_R50_NE USA_R50_SE USA_R50_SW USA_R50_NW USA_R64_NE USA_R64_SE USA_R64_SW USA_R64_NW USA_POCI USA_ROCI USA_RMW USA_EYE TOKYO_LAT TOKYO_LON TOKYO_GRADE TOKYO_WIND TOKYO_PRES TOKYO_R50_DIR TOKYO_R50_LONG TOKYO_R50_SHORT TOKYO_R30_DIR TOKYO_R30_LONG TOKYO_R30_SHORT TOKYO_LAND CMA_LAT CMA_LON CMA_CAT CMA_WIND CMA_PRES HKO_LAT HKO_LON HKO_CAT HKO_WIND HKO_PRES NEWDELHI_LAT NEWDELHI_LON NEWDELHI_GRADE NEWDELHI_WIND NEWDELHI_PRES NEWDELHI_CI NEWDELHI_DP NEWDELHI_POCI REUNION_LAT REUNION_LON REUNION_TYPE REUNION_WIND REUNION_PRES REUNION_TNUM REUNION_CI REUNION_RMW REUNION_R34_NE REUNION_R34_SE REUNION_R34_SW REUNION_R34_NW REUNION_R50_NE REUNION_R50_SE REUNION_R50_SW REUNION_R50_NW REUNION_R64_NE REUNION_R64_SE REUNION_R64_SW REUNION_R64_NW BOM_LAT BOM_LON BOM_TYPE BOM_WIND BOM_PRES BOM_TNUM BOM_CI BOM_RMW BOM_R34_NE BOM_R34_SE BOM_R34_SW BOM_R34_NW BOM_R50_NE BOM_R50_SE BOM_R50_SW BOM_R50_NW BOM_R64_NE BOM_R64_SE BOM_R64_SW BOM_R64_NW BOM_ROCI BOM_POCI BOM_EYE BOM_POS_METHOD BOM_PRES_METHOD NADI_LAT NADI_LON NADI_CAT NADI_WIND NADI_PRES WELLINGTON_LAT WELLINGTON_LON WELLINGTON_WIND WELLINGTON_PRES DS824_LAT DS824_LON DS824_STAGE DS824_WIND DS824_PRES TD9636_LAT TD9636_LON TD9636_STAGE TD9636_WIND TD9636_PRES TD9635_LAT TD9635_LON TD9635_WIND TD9635_PRES TD9635_ROCI NEUMANN_LAT NEUMANN_LON NEUMANN_CLASS NEUMANN_WIND NEUMANN_PRES MLC_LAT MLC_LON MLC_CLASS MLC_WIND MLC_PRES USA_GUST BOM_GUST BOM_GUST_PER REUNION_GUST REUNION_GUST_PER USA_SEAHGT USA_SEARAD_NE USA_SEARAD_SE USA_SEARAD_SW USA_SEARAD_NW STORM_SPEED STORM_DIR
1858011S09058 1858 1 SI MM NOT_NAMED 1858-01-11 06:00:00 NR -8.95000 57.7000 reunion main 967 947 _____O____O___ -1 -8.50000 57.8000 99 9.90000 -9.40000 57.6000 7 4 203
1858011S09058 1858 1 SI MM NOT_NAMED 1858-01-11 09:00:00 NR -9.14917 57.6120 main 947 927 _____P____P___ -1 -8.52793 57.7800 99 -9.77041 57.4440 7 4 203
1858011S09058 1858 1 SI MM NOT_NAMED 1858-01-11 12:00:00 NR -9.35826 57.5237 main 922 902 _____P____P___ -1 -8.56391 57.7571 99 -10.1526 57.2902 7 5 202
1858011S09058 1858 1 SI MM NOT_NAMED 1858-01-11 15:00:00 NR -9.58725 57.4350 main 902 893 _____P____P___ -1 -8.61600 57.7286 99 -10.5585 57.1414 7 5 200
1858011S09058 1858 1 SI MM NOT_NAMED 1858-01-11 18:00:00 NR -9.84612 57.3457 main 883 869 _____P____O___ -1 -8.69225 57.6915 99 -11.0000 57.0000 7 6 198
1858011S09058 1858 1 SI MM NOT_NAMED 1858-01-11 21:00:00 NR -10.1421 57.2553 main 869 843 _____P____P___ -1 -8.80071 57.6430 99 -11.4834 56.8677 7 7 196
1858011S09058 1858 1 SI MM NOT_NAMED 1858-01-12 00:00:00 NR -10.4710 57.1613 main 843 821 _____P____P___ -1 -8.94945 57.5801 99 -11.9925 56.7424 7 7 196
1858011S09058 1858 1 SI MM NOT_NAMED 1858-01-12 03:00:00 NR -10.8259 57.0605 main 821 798 _____P____P___ -1 -9.14653 57.5001 99 -12.5053 56.6208 7 8 196
1858011S09058 1858 1 SI MM NOT_NAMED 1858-01-12 06:00:00 NR -11.2000 56.9500 reunion main 798 765 _____O____O___ -1 -9.40000 57.4000 99 9.90000 -13.0000 56.5000 7 8 197
1858011S09058 1858 1 SI MM NOT_NAMED 1858-01-12 09:00:00 NR -11.6010 56.8225 main 765 743 _____P____P___ -1 -9.71495 57.2781 99 -13.4871 56.3669 7 9 198
1858011S09058 1858 1 SI MM NOT_NAMED 1858-01-12 12:00:00 NR -12.0160 56.6866 main 743 721 _____P____P___ -1 -10.0845 57.1381 99 -13.9474 56.2351 7 9 198
1858011S09058 1858 1 SI MM NOT_NAMED 1858-01-12 15:00:00 NR -12.4290 56.5479 main 711 691 _____P____P___ -1 -10.4989 56.9850 99 -14.3590 56.1107 7 9 198
1858011S09058 1858 1 SI MM NOT_NAMED 1858-01-12 18:00:00 NR -12.8242 56.4119 main 691 664 _____P____O___ -1 -10.9483 56.8238 99 -14.7000 56.0000 7 8 199
1858011S09058 1858 1 SI MM NOT_NAMED 1858-01-12 21:00:00 NR -13.1808 56.2789 main 664 643 _____P____P___ -1 -11.4229 56.6596 99 -14.9387 55.8982 7 7 200
1858011S09058 1858 1 SI MM NOT_NAMED 1858-01-13 00:00:00 NR -13.5114 56.1549 main 643 612 _____P____P___ -1 -11.9129 56.4974 99 -15.1099 55.8123 7 7 199
1858011S09058 1858 1 SI MM NOT_NAMED 1858-01-13 03:00:00 NR -13.8299 56.0438 main 612 604 _____P____P___ -1 -12.4085 56.3425 99 -15.2512 55.7452 7 7 197
1858011S09058 1858 1 SI MM NOT_NAMED 1858-01-13 06:00:00 NR -14.1500 55.9500 reunion main 604 585 _____O____O___ -1 -12.9000 56.2000 99 9.90000 -15.4000 55.7000 7 7 193
1858011S09058 1858 1 SI MM NOT_NAMED 1858-01-13 09:00:00 NR -14.5092 55.8800 main 585 570 _____P____P___ -1 -13.3833 56.0816 99 -15.6350 55.6783 7 7 189
1858011S09058 1858 1 SI MM NOT_NAMED 1858-01-13 12:00:00 NR -14.8768 55.8251 main 570 568 _____P____P___ -1 -13.8736 55.9728 99 -15.8800 55.6774 7 7 188
1858011S09058 1858 1 SI MM NOT_NAMED 1858-01-13 15:00:00 NR -15.2363 55.7805 main 568 538 _____P____P___ -1 -14.3625 55.8733 99 -16.1100 55.6877 7 7 187
1858011S09058 1858 1 SI MM NOT_NAMED 1858-01-13 18:00:00 NR -15.5710 55.7413 main 538 517 _____P____O___ -1 -14.8420 55.7826 99 -16.3000 55.7000 7 6 187
1858011S09058 1858 1 SI MM NOT_NAMED 1858-01-13 21:00:00 NR -15.8548 55.7022 main 507 486 _____P____P___ -1 -15.3037 55.7003 99 -16.4059 55.7040 7 5 187
1858011S09058 1858 1 SI MM NOT_NAMED 1858-01-14 00:00:00 NR -16.1060 55.6668 main 486 470 _____P____P___ -1 -15.7394 55.6261 99 -16.4725 55.7075 7 5 188
1858011S09058 1858 1 SI MM NOT_NAMED 1858-01-14 03:00:00 NR -16.3344 55.6333 main 470 449 _____P____P___ -1 -16.1409 55.5594 99 -16.5278 55.7072 7 5 189
1858011S09058 1858 1 SI MM NOT_NAMED 1858-01-14 06:00:00 NR -16.5500 55.6000 reunion main 449 429 _____O____O___ -1 -16.5000 55.5000 99 9.90000 -16.6000 55.7000 7 4 189
1858011S09058 1858 1 SI MM NOT_NAMED 1858-01-14 09:00:00 NR -16.7516 55.5637 main 420 415 _____P____P___ -1 -16.7870 55.4452 99 -16.7163 55.6822 7 4 190
1858011S09058 1858 1 SI MM NOT_NAMED 1858-01-14 12:00:00 NR -16.9431 55.5284 main 415 396 _____P____P___ -1 -17.0312 55.3993 99 -16.8550 55.6575 7 4 190
1858011S09058 1858 1 SI MM NOT_NAMED 1858-01-14 15:00:00 NR -17.1289 55.4947 main 396 377 _____P____P___ -1 -17.2416 55.3603 99 -17.0163 55.6291 7 4 189
1858011S09058 1858 1 SI MM NOT_NAMED 1858-01-14 18:00:00 NR -17.3135 55.4631 main 377 365 _____P____O___ -1 -17.4271 55.3263 99 -17.2000 55.6000 7 4 189
1858011S09058 1858 1 SI MM NOT_NAMED 1858-01-14 21:00:00 NR -17.4980 55.4371 main 365 347 _____P____P___ -1 -17.5967 55.2952 99 -17.3994 55.5790 7 4 188
1858011S09058 1858 1 SI MM NOT_NAMED 1858-01-15 00:00:00 NR -17.6897 55.4113 main 347 330 _____P____P___ -1 -17.7594 55.2651 99 -17.6200 55.5574 7 4 188
1858011S09058 1858 1 SI MM NOT_NAMED 1858-01-15 03:00:00 NR -17.8899 55.3831 main 330 314 _____P____P___ -1 -17.9242 55.2341 99 -17.8556 55.5321 7 4 189
1858011S09058 1858 1 SI MM NOT_NAMED 1858-01-15 06:00:00 NR -18.1000 55.3500 reunion main 314 302 _____O____O___ -1 -18.1000 55.2000 99 9.90000 -18.1000 55.5000 7 5 190
1858011S09058 1858 1 SI MM NOT_NAMED 1858-01-15 09:00:00 NR -18.3381 55.3020 main 302 268 _____P____P___ -1 -18.3293 55.1509 99 -18.3469 55.4532 7 5 191
1858011S09058 1858 1 SI MM NOT_NAMED 1858-01-15 12:00:00 NR -18.5828 55.2497 main 268 246 _____P____P___ -1 -18.5656 55.0993 99 -18.6000 55.4001 7 5 192
1858011S09058 1858 1 SI MM NOT_NAMED 1858-01-15 15:00:00 NR -18.8299 55.1965 main 246 213 _____P____P___ -1 -18.8067 55.0462 99 -18.8531 55.3469 7 5 191
1858011S09058 1858 1 SI MM NOT_NAMED 1858-01-15 18:00:00 NR -19.0750 55.1464 main 213 191 _____P____O___ -1 -19.0500 54.9928 99 -19.1000 55.3000 7 5 190
1858011S09058 1858 1 SI MM NOT_NAMED 1858-01-15 21:00:00 NR -19.3128 55.1060 main 191 169 _____P____P___ -1 -19.2934 54.9403 99 -19.3322 55.2718 7 5 189
1858011S09058 1858 1 SI MM NOT_NAMED 1858-01-16 00:00:00 NR -19.5459 55.0699 main 169 137 _____P____P___ -1 -19.5344 54.8899 99 -19.5575 55.2498 7 5 188
1858011S09058 1858 1 SI MM NOT_NAMED 1858-01-16 03:00:00 NR -19.7749 55.0354 main 137 116 _____P____P___ -1 -19.7707 54.8427 99 -19.7790 55.2280 7 5 189
1858011S09058 1858 1 SI MM NOT_NAMED 1858-01-16 06:00:00 NR -20.0000 55.0000 reunion main 116 94 _____O____O___ -1 -20.0000 54.8000 99 9.90000 -20.0000 55.2000 7 5 189
1858011S09058 1858 1 SI MM NOT_NAMED 1858-01-16 09:00:00 NR -20.2235 54.9594 main 94 78 _____P____P___ -1 -20.2139 54.7655 99 -20.2331 55.1532 7 5 191
1858011S09058 1858 1 SI MM NOT_NAMED 1858-01-16 12:00:00 NR -20.4433 54.9177 main 78 61 _____P____P___ -1 -20.4215 54.7353 99 -20.4650 55.1001 7 4 191
1858011S09058 1858 1 SI MM NOT_NAMED 1858-01-16 15:00:00 NR -20.6567 54.8778 main 53 45 _____P____P___ -1 -20.6239 54.7086 99 -20.6894 55.0469 7 4 190
1858011S09058 1858 1 SI MM NOT_NAMED 1858-01-16 18:00:00 NR -20.8612 54.8423 main 47 42 _____P____O___ -1 -20.8224 54.6846 99 -20.9000 55.0000 7 4 189
1858011S09058 1858 1 SI MM NOT_NAMED 1858-01-16 21:00:00 NR -21.0395 54.8171 main 42 41 _____P____P___ -1 -21.0181 54.6625 99 -21.0609 54.9717 7 4 187
1858011S09058 1858 1 SI MM NOT_NAMED 1858-01-17 00:00:00 NR -21.2123 54.7957 main 42 42 _____P____P___ -1 -21.2121 54.6416 99 -21.2125 54.9498 7 4 185
1858011S09058 1858 1 SI MM NOT_NAMED 1858-01-17 03:00:00 NR -21.3943 54.7745 main 52 52 _____P____P___ -1 -21.4057 54.6210 99 -21.3828 54.9279 7 4 186
1858011S09058 1858 1 SI MM NOT_NAMED 1858-01-17 06:00:00 NR -21.6000 54.7500 reunion main 61 61 _____O____O___ -1 -21.6000 54.6000 99 9.90000 -21.6000 54.9000 7 5 187
1858011S09058 1858 1 SI MM NOT_NAMED 1858-01-17 09:00:00 NR -21.8507 54.7141 main 91 91 _____P____P___ -1 -21.8057 54.5750 99 -21.8957 54.8533 7 5 188
1858011S09058 1858 1 SI MM NOT_NAMED 1858-01-17 12:00:00 NR -22.1261 54.6751 main 108 108 _____P____P___ -1 -22.0122 54.5499 99 -22.2400 54.8002 7 6 186
1858011S09058 1858 1 SI MM NOT_NAMED 1858-01-17 15:00:00 NR -22.4163 54.6360 main 142 142 _____P____P___ -1 -22.2181 54.5249 99 -22.6144 54.7470 7 6 187
1858011S09058 1858 1 SI MM NOT_NAMED 1858-01-17 18:00:00 NR -22.7112 54.6000 main 172 172 _____P____O___ -1 -22.4225 54.4999 99 -23.0000 54.7000 7 6 185
1858011S09058 1858 1 SI MM NOT_NAMED 1858-01-17 21:00:00 NR -23.0101 54.5733 main 203 203 _____P____P___ -1 -22.6240 54.4749 99 -23.3962 54.6717 7 6 184
1858011S09058 1858 1 SI MM NOT_NAMED 1858-01-18 00:00:00 NR -23.3083 54.5499 main 238 238 _____P____P___ -1 -22.8215 54.4500 99 -23.7950 54.6498 7 6 184
1858011S09058 1858 1 SI MM NOT_NAMED 1858-01-18 03:00:00 NR -23.5926 54.5265 main 269 269 _____P____P___ -1 -23.0139 54.4250 99 -24.1712 54.6280 7 5 183
1858011S09058 1858 1 SI MM NOT_NAMED 1858-01-18 06:00:00 NR -23.8500 54.5000 reunion main 301 301 _____O____O___ -1 -23.2000 54.4000 99 9.90000 -24.5000 54.6000 7 5 186
1858011S09058 1858 1 SI MM NOT_NAMED 1858-01-18 09:00:00 NR -24.0545 54.4611 main 322 322 _____P____P___ -1 -23.3669 54.3730 99 -24.7422 54.5491 7 4 190
1858011S09058 1858 1 SI MM NOT_NAMED 1858-01-18 12:00:00 NR -24.2319 54.4192 main 336 336 _____P____P___ -1 -23.5263 54.3459 99 -24.9375 54.4926 7 4 193
1858011S09058 1858 1 SI MM NOT_NAMED 1858-01-18 15:00:00 NR -24.3977 54.3793 main 357 357 _____P____P___ -1 -23.6813 54.3189 99 -25.1141 54.4397 7 3 192
1858011S09058 1858 1 SI MM NOT_NAMED 1858-01-18 18:00:00 NR -24.5675 54.3462 main 381 381 _____P____O___ -1 -23.8350 54.2924 99 -25.3000 54.4000 7 4 189
1858011S09058 1858 1 SI MM NOT_NAMED 1858-01-18 21:00:00 NR -24.7539 54.3236 main 402 402 _____P____P___ -1 -23.9906 54.2669 99 -25.5172 54.3802 7 3 188
1858011S09058 1858 1 SI MM NOT_NAMED 1858-01-19 00:00:00 NR -24.8418 54.3004 main 402 402 _____P____P___ -1 -24.1513 54.2428 99 -25.7625 54.3774 7 1 199
1858011S09058 1858 1 SI MM NOT_NAMED 1858-01-19 03:00:00 NR -24.8889 54.2755 main 413 413 _____P____P___ -1 -24.3200 54.2203 99 -26.0266 54.3858 7 1 251
1858011S09058 1858 1 SI MM NOT_NAMED 1858-01-19 06:00:00 NR -24.8600 54.2400 reunion main 416 395 _____O____O___ -1 -24.5000 54.2000 99 9.90000 -26.3000 54.4000 7 2 332
1858011S09058 1858 1 SI MM NOT_NAMED 1858-01-19 09:00:00 NR -24.7209 54.1828 main 395 395 _____P________ -1 -24.7209 54.1828 99 7 1 217
1858011S09058 1858 1 SI MM NOT_NAMED 1858-01-19 12:00:00 NR -24.9547 54.1678 main 427 427 _____P________ -1 -24.9547 54.1678 99 7 5 182
1858011S09058 1858 1 SI MM NOT_NAMED 1858-01-19 15:00:00 NR -25.1955 54.1544 main 448 448 _____P________ -1 -25.1955 54.1544 99 7 5 181
1858011S09058 1858 1 SI MM NOT_NAMED 1858-01-19 18:00:00 NR -25.4375 54.1424 main 472 472 _____P________ -1 -25.4375 54.1424 99 5 182
1858011S09058 1858 1 SI MM NOT_NAMED 1858-01-19 21:00:00 NR -25.6748 54.1314 main 504 504 _____P________ -1 -25.6748 54.1314 99 5 183
1858011S09058 1858 1 SI MM NOT_NAMED 1858-01-20 00:00:00 NR -25.9016 54.1209 main 525 525 _____P________ -1 -25.9016 54.1209 99 4 0
1858011S09058 1858 1 SI MM NOT_NAMED 1858-01-20 03:00:00 NR -26.1119 54.1106 main 546 546 _____P________ -1 -26.1119 54.1106 99 4 0
1858011S09058 1858 1 SI MM NOT_NAMED 1858-01-20 06:00:00 NR -26.3000 54.1000 reunion main 568 568 _____O________ -1 -26.3000 54.1000 99 9.90000 4 0
1858011S09058 1858 1 SI MM NOT_NAMED 1858-01-20 09:00:00 NR -26.4615 54.0889 main 589 589 _____P________ -1 -26.4615 54.0889 99 3 183
1858011S09058 1858 1 SI MM NOT_NAMED 1858-01-20 12:00:00 NR -26.5984 54.0772 main 600 600 _____P________ -1 -26.5984 54.0772 99 3 184
1858011S09058 1858 1 SI MM NOT_NAMED 1858-01-20 15:00:00 NR -26.7142 54.0651 main 611 611 _____P________ -1 -26.7142 54.0651 99 2 0
1858011S09058 1858 1 SI MM NOT_NAMED 1858-01-20 18:00:00 NR -26.8125 54.0525 main 622 622 _____P________ -1 -26.8125 54.0525 99 2 0
1858011S09058 1858 1 SI MM NOT_NAMED 1858-01-20 21:00:00 NR -26.8966 54.0397 main 635 635 _____P________ -1 -26.8966 54.0397 99 2 184
1858011S09058 1858 1 SI MM NOT_NAMED 1858-01-21 00:00:00 NR -26.9703 54.0266 main 646 646 _____P________ -1 -26.9703 54.0266 99 1 191
1858011S09058 1858 1 SI MM NOT_NAMED 1858-01-21 03:00:00 NR -27.0369 54.0133 main 646 646 _____P________ -1 -27.0369 54.0133 99 1 189
1858011S09058 1858 1 SI MM NOT_NAMED 1858-01-21 06:00:00 NR -27.1000 54.0000 reunion main 657 _____O________ -1 -27.1000 54.0000 99 9.90000 1 203

IBTrACS Databaseについて

本データベースは、米国NOAAが公開する1842年以降の世界の熱帯低気圧のベストトラックデータアーカイブInternational Best Track Archive for Climate Stewardship (IBTrACS)を、ウェブで閲覧しやすい形式に変換したものです。

最終更新日:2021-11-26